Flight Track Log - Related Links

Times and Time Zones

All times are in EDT time to prevent confusion due to time zone crossing. See the CTL13 flight status page for this flight to view local times or setup timezone preferences in your user account.

Time Position Orientation Groundspeed Altitude Reporting Facility
EDT Latitude Longitude Course Direction KTS MPH feet Rate Location/Type
Mon 06:39:57 PM 41.5233 -81.6758 348° North 110 127 900  Level Cleveland Center
Mon 06:41:10 PM 41.5647 -81.6878 348° North 145 167 2,200 1,218 Climbing Cleveland Center
Mon 06:42:10 PM 41.5872 -81.7297 306° West 132 152 3,600 1,140 Climbing Cleveland Center
Mon 06:43:11 PM 41.5994 -81.7772 289° West 132 152 4,500 787 Climbing Cleveland Center
Mon 06:44:12 PM 41.5989 -81.8300 269° West 154 177 5,200 756 Climbing Cleveland Center
Mon 06:45:18 PM 41.5961 -81.8881 266° West 145 167 6,100 767 Climbing Cleveland Center
Mon 06:46:25 PM 41.5725 -81.9431 240° Southwest 141 162 6,900 703 Climbing Cleveland Center
Mon 06:47:26 PM 41.5553 -81.9872 242° Southwest 134 154 7,600 709 Climbing Cleveland Center
Mon 06:48:32 PM 41.5339 -82.0394 241° Southwest 136 157 8,400 673 Climbing Cleveland Center
Mon 06:49:13 PM 41.5211 -82.0614 232° Southwest 138 159 8,800 590 Climbing Cleveland Center
Mon 06:49:33 PM 41.5164 -82.0833 254° West 138 159 9,000 700 Climbing Cleveland Center
Mon 06:50:13 PM 41.5036 -82.1053 232° Southwest 138 159 9,500 540 Climbing Cleveland Center
Mon 06:51:13 PM 41.4864 -82.1464 241° Southwest 143 165 9,900 250 Climbing Cleveland Center
Mon 06:52:13 PM 41.4669 -82.1958 242° Southwest 143 165 10,000 50 Climbing Cleveland Center
Mon 06:53:13 PM 41.4456 -82.2481 241° Southwest 157 181 10,000  Level Cleveland Center
Mon 06:54:13 PM 41.4239 -82.3000 241° Southwest 157 181 10,000  Level Cleveland Center
Mon 06:55:13 PM 41.4064 -82.3522 246° West 162 186 10,000  Level Cleveland Center
Mon 06:56:13 PM 41.3847 -82.4042 241° Southwest 157 181 10,000 -50 Level Cleveland Center
Mon 06:57:13 PM 41.3631 -82.4589 242° Southwest 157 181 9,900  Descending Cleveland Center
Mon 06:58:13 PM 41.3414 -82.5108 241° Southwest 157 181 10,000 50 Climbing Cleveland Center
Mon 06:59:13 PM 41.3175 -82.5653 240° Southwest 157 181 10,000  Level Cleveland Center
Mon 07:00:13 PM 41.2978 -82.6172 243° Southwest 157 181 10,000 50 Level Cleveland Center
Mon 07:01:13 PM 41.2758 -82.6692 241° Southwest 157 181 10,100  Climbing Cleveland Center
Mon 07:02:13 PM 41.2542 -82.7236 242° Southwest 157 181 10,000 -50 Descending Cleveland Center
Mon 07:03:13 PM 41.2322 -82.7756 241° Southwest 157 181 10,000 -50 Level Cleveland Center
Mon 07:04:13 PM 41.2106 -82.8244 240° Southwest 162 186 9,900 -50 Descending Cleveland Center
Mon 07:05:13 PM 41.1864 -82.8786 239° Southwest 162 186 9,900  Level Cleveland Center
Mon 07:06:13 PM 41.1644 -82.9303 241° Southwest 162 186 9,900  Level Cleveland Center
Mon 07:07:13 PM 41.1428 -82.9792 240° Southwest 162 186 9,900 50 Level Cleveland Center
Mon 07:08:13 PM 41.1228 -83.0308 243° Southwest 162 186 10,000 50 Climbing Cleveland Center
Mon 07:09:13 PM 41.1008 -83.0769 238° Southwest 162 186 10,000  Level Cleveland Center
Mon 07:10:13 PM 41.0811 -83.1286 243° Southwest 162 186 10,000  Level Cleveland Center
Mon 07:11:13 PM 41.0611 -83.1828 244° Southwest 162 186 10,000  Level Cleveland Center
Mon 07:12:13 PM 41.0392 -83.2314 239° Southwest 162 186 10,000  Level Cleveland Center
Mon 07:13:13 PM 41.0169 -83.2828 240° Southwest 151 174 10,000  Level Cleveland Center
Mon 07:14:13 PM 40.9972 -83.3317 242° Southwest 156 180 10,000  Level Cleveland Center
Mon 07:15:13 PM 40.9750 -83.3803 239° Southwest 156 180 10,000  Level Cleveland Center
Mon 07:16:59 PM 40.9322 -83.4739 239° Southwest 158 182 10,000  Level Indianapolis Center
Mon 07:18:00 PM 40.9114 -83.5250 242° Southwest 158 182 10,000  Level Indianapolis Center
Mon 07:19:02 PM 40.8886 -83.5756 239° Southwest 158 182 10,000  Level Indianapolis Center
Mon 07:20:04 PM 40.8653 -83.6264 239° Southwest 159 183 10,000  Level Indianapolis Center
Mon 07:21:06 PM 40.8425 -83.6786 240° Southwest 161 185 10,000  Level Indianapolis Center
Mon 07:22:08 PM 40.8211 -83.7300 241° Southwest 161 185 10,000  Level Indianapolis Center
Mon 07:23:10 PM 40.7978 -83.7783 237° Southwest 158 182 10,000  Level Indianapolis Center
Mon 07:24:11 PM 40.7753 -83.8289 240° Southwest 158 182 10,000  Level Indianapolis Center
Mon 07:25:13 PM 40.7472 -83.8861 237° Southwest 158 182 10,000  Level Indianapolis Center
Mon 07:26:15 PM 40.7236 -83.9347 237° Southwest 156 180 10,000  Level Indianapolis Center
Mon 07:27:17 PM 40.7006 -83.9828 238° Southwest 155 178 10,000  Level Indianapolis Center
Mon 07:28:18 PM 40.6817 -84.0350 245° Southwest 156 180 10,000  Level Indianapolis Center
Mon 07:29:20 PM 40.6614 -84.0867 243° Southwest 157 181 10,000  Level Indianapolis Center
Mon 07:30:22 PM 40.6325 -84.1306 229° Southwest 158 182 10,000  Level Indianapolis Center
Mon 07:31:24 PM 40.6039 -84.1767 231° Southwest 160 184 10,000  Level Indianapolis Center
Mon 07:32:25 PM 40.5767 -84.2225 232° Southwest 160 184 10,000  Level Indianapolis Center
Mon 07:33:27 PM 40.5469 -84.2797 236° Southwest 160 184 10,000  Level Indianapolis Center
Mon 07:34:29 PM 40.5214 -84.3283 235° Southwest 160 184 10,000  Level Indianapolis Center
Mon 07:35:30 PM 40.4936 -84.3758 232° Southwest 163 188 10,000  Level Indianapolis Center
Mon 07:36:26 PM 40.4669 -84.4222 233° Southwest 161 185 10,000  Level Indianapolis Center
Mon 07:37:34 PM 40.4403 -84.4711 234° Southwest 161 185 10,000  Level Indianapolis Center
Mon 07:38:36 PM 40.4139 -84.5197 235° Southwest 161 185 10,000  Level Indianapolis Center
Mon 07:39:37 PM 40.3869 -84.5697 235° Southwest 163 188 10,000  Level Indianapolis Center
Mon 07:40:29 PM 40.3614 -84.6133 232° Southwest 164 189 10,000  Level Indianapolis Center
Mon 07:41:40 PM 40.3328 -84.6661 235° Southwest 163 188 10,000  Level Indianapolis Center
Mon 07:42:30 PM 40.3072 -84.7125 234° Southwest 163 188 10,000  Level Indianapolis Center
Mon 07:43:43 PM 40.2747 -84.7736 235° Southwest 163 188 10,000  Level Indianapolis Center
Mon 07:44:45 PM 40.2500 -84.8208 236° Southwest 163 188 10,000  Level Indianapolis Center
Mon 07:45:44 PM 40.2228 -84.8675 233° Southwest 162 186 10,000  Level Indianapolis Center
Mon 07:46:48 PM 40.1967 -84.9161 235° Southwest 161 185 10,000  Level Indianapolis Center
Mon 07:47:50 PM 40.1694 -84.9647 234° Southwest 162 186 10,000  Level Indianapolis Center
Mon 07:48:51 PM 40.1453 -85.0142 237° Southwest 162 186 10,000 49 Level Indianapolis Center
Mon 07:49:53 PM 40.1336 -85.0789 257° West 159 183 10,100  Climbing Indianapolis Center
Mon 07:50:54 PM 40.1206 -85.1267 250° West 160 184 10,000  Descending Indianapolis Center
Mon 07:51:56 PM 40.1072 -85.1839 253° West 162 186 10,100  Climbing Indianapolis Center
Mon 07:52:57 PM 40.0967 -85.2419 257° West 163 188 10,000 -295 Descending Indianapolis Center
Mon 07:53:58 PM 40.0861 -85.3122 259° West 166 191 9,500 -439 Descending Indianapolis Center
Mon 07:55:00 PM 40.0781 -85.3769 261° West 173 199 9,100 -488 Descending Indianapolis Center
Mon 07:56:01 PM 40.0653 -85.4414 255° West 178 205 8,500 -488 Descending Indianapolis Center
Mon 07:57:03 PM 40.0525 -85.5053 255° West 180 207 8,100 -488 Descending Indianapolis Center
Mon 07:58:04 PM 40.0403 -85.5703 256° West 181 208 7,500 -439 Descending Indianapolis Center
Mon 07:59:06 PM 40.0272 -85.6378 256° West 182 209 7,200 -488 Descending Indianapolis Center
Mon 08:00:56 PM 40.0167 -85.7500 263° West 184 212 6,100 -529 Descending Indianapolis TRACON
Mon 08:01:56 PM 40.0000 -85.8167 252° West 176 203 5,700 -500 Descending Indianapolis TRACON
Mon 08:02:56 PM 39.9833 -85.8833 252° West 175 201 5,100 -600 Descending Indianapolis TRACON
Mon 08:03:56 PM 39.9667 -85.9500 252° West 185 213 4,500 -550 Descending Indianapolis TRACON
Mon 08:04:56 PM 39.9500 -86.0000 247° West 184 212 4,000 -500 Descending Indianapolis TRACON

Login

Don't have an account? Register now (free) for customized features, flight alerts, and more!